Time;durP1;ratioP1;P1;durP2;ratioP2;P2;SDS_P1;SDS_P2;PMS_P1;PMS_P2;Temp;Humidity;BMP_temperature;BMP_pressure;BME280_temperature;BME280_humidity;BME280_pressure;Samples;Min_cycle;Max_cycle;Signal;HPM_P1;HPM_P2
2023/10/27 00:00:57;;;;;;;38.88;22.48;;;;;;;;;;5061856;27;100103;-75
2023/10/27 00:03:25;;;;;;;43.90;23.08;;;;;;;;;;5058628;27;99953;-75
2023/10/27 00:05:51;;;;;;;43.72;22.95;;;;;;;;;;5059963;27;98985;-76
2023/10/27 00:08:18;;;;;;;36.65;21.35;;;;;;;;;;5057350;27;99364;-75
2023/10/27 00:10:44;;;;;;;45.42;22.20;;;;;;;;;;5067519;27;99995;-76
2023/10/27 00:13:11;;;;;;;39.28;21.08;;;;;;;;;;5064355;27;99355;-75
2023/10/27 00:15:39;;;;;;;40.75;22.63;;;;;;;;;;5055106;27;100415;-75
2023/10/27 00:18:05;;;;;;;44.08;23.58;;;;;;;;;;5053096;27;101030;-75
2023/10/27 00:20:32;;;;;;;42.67;22.80;;;;;;;;;;5054069;27;99592;-75
2023/10/27 00:22:58;;;;;;;44.17;23.67;;;;;;;;;;5049692;27;99110;-74
2023/10/27 00:25:25;;;;;;;41.92;22.85;;;;;;;;;;5057476;27;99956;-75
2023/10/27 00:27:51;;;;;;;42.60;21.98;;;;;;;;;;5056167;27;101802;-75
2023/10/27 00:30:18;;;;;;;45.40;24.50;;;;;;;;;;5058588;27;100142;-75
2023/10/27 00:32:44;;;;;;;42.42;21.17;;;;;;;;;;5062252;27;98409;-73
2023/10/27 00:35:12;;;;;;;40.30;23.50;;;;;;;;;;5059921;27;99245;-74
2023/10/27 00:37:40;;;;;;;39.90;21.35;;;;;;;;;;5056163;27;99273;-72
2023/10/27 00:40:08;;;;;;;50.10;23.58;;;;;;;;;;5060763;27;100080;-75
2023/10/27 00:42:34;;;;;;;42.35;23.65;;;;;;;;;;5054769;27;99192;-75
2023/10/27 00:45:01;;;;;;;44.90;23.30;;;;;;;;;;5056684;27;98943;-75
2023/10/27 00:47:29;;;;;;;45.17;23.05;;;;;;;;;;5052776;27;100846;-75
2023/10/27 00:49:56;;;;;;;43.15;23.42;;;;;;;;;;5054291;27;99778;-75
2023/10/27 00:52:24;;;;;;;37.95;21.52;;;;;;;;;;5051819;27;100337;-75
2023/10/27 00:54:51;;;;;;;44.70;23.15;;;;;;;;;;5051162;27;100069;-75
2023/10/27 00:57:18;;;;;;;43.97;24.13;;;;;;;;;;5059213;27;100337;-75
2023/10/27 00:59:44;;;;;;;43.28;22.75;;;;;;;;;;5057740;27;99708;-75
2023/10/27 01:02:11;;;;;;;46.42;23.20;;;;;;;;;;5053131;27;101296;-75
2023/10/27 01:04:40;;;;;;;43.38;23.40;;;;;;;;;;5049069;27;99514;-75
2023/10/27 01:07:07;;;;;;;40.45;23.10;;;;;;;;;;5054239;27;100207;-75
2023/10/27 01:09:33;;;;;;;51.80;23.70;;;;;;;;;;5055470;27;100537;-75
2023/10/27 01:12:00;;;;;;;39.58;22.75;;;;;;;;;;5051893;27;100161;-76
2023/10/27 01:14:27;;;;;;;44.40;24.27;;;;;;;;;;5068761;27;99110;-75
2023/10/27 01:16:54;;;;;;;41.63;23.15;;;;;;;;;;5060734;27;99240;-74
2023/10/27 01:19:20;;;;;;;43.10;23.48;;;;;;;;;;5060709;27;101377;-75
2023/10/27 01:21:47;;;;;;;40.15;22.10;;;;;;;;;;5059500;27;99137;-75
2023/10/27 01:24:13;;;;;;;40.03;23.45;;;;;;;;;;5052935;27;100274;-75
2023/10/27 01:26:40;;;;;;;42.17;22.95;;;;;;;;;;5060188;27;99985;-75
2023/10/27 01:29:08;;;;;;;41.13;23.15;;;;;;;;;;5054550;27;100115;-75
2023/10/27 01:31:35;;;;;;;44.13;23.20;;;;;;;;;;5058909;27;99913;-73
2023/10/27 01:34:02;;;;;;;41.17;24.10;;;;;;;;;;5052267;27;100432;-75
2023/10/27 01:36:29;;;;;;;41.85;21.83;;;;;;;;;;5066372;27;98794;-75
2023/10/27 01:38:55;;;;;;;46.70;24.40;;;;;;;;;;5057073;27;99193;-76
2023/10/27 01:41:22;;;;;;;39.85;23.55;;;;;;;;;;5057342;27;100489;-74
2023/10/27 01:43:50;;;;;;;41.17;22.77;;;;;;;;;;5056104;27;100227;-74
2023/10/27 01:46:17;;;;;;;41.88;22.27;;;;;;;;;;5055972;27;100390;-74
2023/10/27 01:48:44;;;;;;;42.92;23.23;;;;;;;;;;5049819;27;101262;-75
2023/10/27 01:51:10;;;;;;;46.45;25.40;;;;;;;;;;5058013;27;101213;-74
2023/10/27 01:53:37;;;;;;;48.63;24.20;;;;;;;;;;5052663;27;99900;-75
2023/10/27 01:56:03;;;;;;;55.45;24.38;;;;;;;;;;5085040;27;102433;-74
2023/10/27 01:58:30;;;;;;;51.05;25.45;;;;;;;;;;5055283;27;101520;-75
2023/10/27 02:00:57;;;;;;;48.78;23.42;;;;;;;;;;5087238;27;99835;-76
2023/10/27 02:03:23;;;;;;;48.30;25.48;;;;;;;;;;5061682;27;100393;-75
2023/10/27 02:05:50;;;;;;;51.53;24.05;;;;;;;;;;5054984;27;99499;-75
2023/10/27 02:08:17;;;;;;;62.05;25.17;;;;;;;;;;5055436;27;99595;-74
2023/10/27 02:10:44;;;;;;;47.00;24.60;;;;;;;;;;5053209;27;101772;-76
2023/10/27 02:13:11;;;;;;;49.53;24.67;;;;;;;;;;5048122;27;100627;-77
2023/10/27 02:15:39;;;;;;;49.70;26.15;;;;;;;;;;5062903;27;100369;-76
2023/10/27 02:18:05;;;;;;;44.17;24.60;;;;;;;;;;5067762;27;99475;-74
2023/10/27 02:20:32;;;;;;;59.00;25.77;;;;;;;;;;5059518;27;99289;-76
2023/10/27 02:22:58;;;;;;;45.25;24.08;;;;;;;;;;5048642;27;99254;-75
2023/10/27 02:25:26;;;;;;;52.88;26.23;;;;;;;;;;5061162;27;100631;-76
2023/10/27 02:27:53;;;;;;;57.55;24.92;;;;;;;;;;5057224;27;100553;-77
2023/10/27 02:30:19;;;;;;;48.85;23.52;;;;;;;;;;5055167;27;99312;-77
2023/10/27 02:32:46;;;;;;;59.47;25.73;;;;;;;;;;5061708;27;100507;-78
2023/10/27 02:35:13;;;;;;;54.42;25.20;;;;;;;;;;5054565;27;101310;-79
2023/10/27 02:37:39;;;;;;;64.70;26.02;;;;;;;;;;5057899;27;101158;-80
2023/10/27 02:40:06;;;;;;;55.33;25.05;;;;;;;;;;5060152;27;99916;-80
2023/10/27 02:42:32;;;;;;;58.58;25.35;;;;;;;;;;5053832;27;99939;-77
2023/10/27 02:44:59;;;;;;;62.35;27.50;;;;;;;;;;5051580;27;100284;-77
2023/10/27 02:47:26;;;;;;;67.45;26.35;;;;;;;;;;5057123;27;100899;-77
2023/10/27 02:49:54;;;;;;;66.90;26.02;;;;;;;;;;5057406;27;100554;-76
2023/10/27 02:52:21;;;;;;;72.60;27.23;;;;;;;;;;5058798;27;101129;-77
2023/10/27 02:54:47;;;;;;;74.03;26.58;;;;;;;;;;5046573;27;100516;-76
2023/10/27 02:57:14;;;;;;;69.13;24.23;;;;;;;;;;5062212;27;100076;-77
2023/10/27 02:59:40;;;;;;;70.30;26.20;;;;;;;;;;5061068;27;98474;-76
2023/10/27 03:02:06;;;;;;;66.97;25.13;;;;;;;;;;5067322;27;99044;-77
2023/10/27 03:04:35;;;;;;;63.53;24.08;;;;;;;;;;5051181;27;100509;-76
2023/10/27 03:07:03;;;;;;;66.32;24.52;;;;;;;;;;5054128;27;99412;-76
2023/10/27 03:09:31;;;;;;;70.28;24.40;;;;;;;;;;5058229;27;99624;-76
2023/10/27 03:11:57;;;;;;;60.47;23.02;;;;;;;;;;5056778;27;99697;-76
2023/10/27 03:14:26;;;;;;;66.70;24.20;;;;;;;;;;5062019;27;99486;-76
2023/10/27 03:16:52;;;;;;;64.22;24.25;;;;;;;;;;5055354;27;99876;-76
2023/10/27 03:19:19;;;;;;;61.38;24.90;;;;;;;;;;5050024;27;99195;-77
2023/10/27 03:21:46;;;;;;;58.08;22.20;;;;;;;;;;5054884;27;99753;-76
2023/10/27 03:24:13;;;;;;;59.03;23.17;;;;;;;;;;5059771;27;100829;-77
2023/10/27 03:26:40;;;;;;;62.20;22.55;;;;;;;;;;5050290;27;99949;-77
2023/10/27 03:29:07;;;;;;;61.85;22.58;;;;;;;;;;5060615;27;100322;-77
2023/10/27 03:31:34;;;;;;;67.45;22.73;;;;;;;;;;5056624;27;99968;-77
2023/10/27 03:34:01;;;;;;;56.05;20.10;;;;;;;;;;5063757;27;99029;-75
2023/10/27 03:36:28;;;;;;;58.35;22.70;;;;;;;;;;5055505;27;101631;-76
2023/10/27 03:38:55;;;;;;;66.93;22.23;;;;;;;;;;5054846;27;99242;-75
2023/10/27 03:41:22;;;;;;;50.88;19.48;;;;;;;;;;5053793;27;100235;-76
2023/10/27 03:43:50;;;;;;;61.42;20.55;;;;;;;;;;5059927;27;99801;-75
2023/10/27 03:46:17;;;;;;;62.25;21.25;;;;;;;;;;5056167;27;99062;-76
2023/10/27 03:48:44;;;;;;;51.35;19.02;;;;;;;;;;5055833;27;99601;-75
2023/10/27 03:51:11;;;;;;;58.08;21.20;;;;;;;;;;5056718;27;99231;-75
2023/10/27 03:53:38;;;;;;;44.72;18.60;;;;;;;;;;5058857;27;100009;-76
2023/10/27 03:56:04;;;;;;;67.43;20.05;;;;;;;;;;5064037;27;100042;-77
2023/10/27 03:58:33;;;;;;;54.90;17.55;;;;;;;;;;5083390;27;100754;-76
2023/10/27 04:01:13;;;;;;;44.67;17.52;;;;;;;;;;5047385;27;99258;-77
2023/10/27 04:03:40;;;;;;;72.03;19.40;;;;;;;;;;5052446;27;99329;-77
2023/10/27 04:06:10;;;;;;;53.72;17.30;;;;;;;;;;5058709;27;99420;-77
2023/10/27 04:08:36;;;;;;;48.72;17.83;;;;;;;;;;5048103;27;100116;-77
2023/10/27 04:11:03;;;;;;;58.20;17.17;;;;;;;;;;5051992;27;99912;-77
2023/10/27 04:13:29;;;;;;;53.50;17.25;;;;;;;;;;5044593;27;100297;-78
2023/10/27 04:15:56;;;;;;;55.20;17.13;;;;;;;;;;5061000;27;99476;-78
2023/10/27 04:18:22;;;;;;;45.55;16.40;;;;;;;;;;5055105;27;100014;-77
2023/10/27 04:20:49;;;;;;;43.78;14.70;;;;;;;;;;5060459;27;99922;-77
2023/10/27 04:23:16;;;;;;;45.92;15.48;;;;;;;;;;5058738;27;100762;-77
2023/10/27 04:25:43;;;;;;;50.63;16.35;;;;;;;;;;5043923;27;100158;-77
2023/10/27 04:28:09;;;;;;;42.78;14.60;;;;;;;;;;5065115;27;101696;-77
2023/10/27 04:30:36;;;;;;;47.50;14.85;;;;;;;;;;5053846;27;100622;-76
2023/10/27 04:33:04;;;;;;;45.33;14.18;;;;;;;;;;5065332;27;99058;-76
2023/10/27 04:35:32;;;;;;;38.70;14.30;;;;;;;;;;5045917;27;100172;-76
2023/10/27 04:38:01;;;;;;;41.22;14.18;;;;;;;;;;5054412;27;99767;-76
2023/10/27 04:40:29;;;;;;;57.10;15.82;;;;;;;;;;5063803;27;98967;-75
2023/10/27 04:42:58;;;;;;;55.33;16.92;;;;;;;;;;5060638;27;98879;-76
2023/10/27 04:45:25;;;;;;;40.33;15.48;;;;;;;;;;5055016;27;99901;-76
2023/10/27 04:47:51;;;;;;;41.67;13.75;;;;;;;;;;5053796;27;99825;-76
2023/10/27 04:50:19;;;;;;;44.38;14.15;;;;;;;;;;5058184;27;100352;-76
2023/10/27 04:52:46;;;;;;;45.60;14.57;;;;;;;;;;5055085;27;99617;-77
2023/10/27 04:55:14;;;;;;;40.40;13.13;;;;;;;;;;5055915;27;100160;-76
2023/10/27 04:57:41;;;;;;;41.38;13.20;;;;;;;;;;5059901;27;100567;-76
2023/10/27 05:00:08;;;;;;;35.28;12.13;;;;;;;;;;5060438;27;100092;-76
2023/10/27 05:02:35;;;;;;;36.30;12.82;;;;;;;;;;5054838;27;100379;-77
2023/10/27 05:05:02;;;;;;;35.25;12.50;;;;;;;;;;5057475;27;100347;-76
2023/10/27 05:07:28;;;;;;;46.38;12.88;;;;;;;;;;5055296;27;99379;-76
2023/10/27 05:09:55;;;;;;;38.13;12.73;;;;;;;;;;5059341;27;99309;-76
2023/10/27 05:12:21;;;;;;;37.42;11.68;;;;;;;;;;5060334;27;99692;-75
2023/10/27 05:14:48;;;;;;;38.20;13.15;;;;;;;;;;5059762;27;99884;-75
2023/10/27 05:17:17;;;;;;;42.72;11.68;;;;;;;;;;5062529;27;100213;-75
2023/10/27 05:19:43;;;;;;;31.02;12.10;;;;;;;;;;5060562;27;101635;-75
2023/10/27 05:22:10;;;;;;;34.88;12.68;;;;;;;;;;5058176;27;100027;-74
2023/10/27 05:24:37;;;;;;;31.83;11.93;;;;;;;;;;5049668;27;100474;-75
2023/10/27 05:27:03;;;;;;;32.88;12.23;;;;;;;;;;5049364;27;99861;-74
2023/10/27 05:29:30;;;;;;;38.15;12.35;;;;;;;;;;5055385;27;98461;-74
2023/10/27 05:31:56;;;;;;;32.90;11.77;;;;;;;;;;5054778;27;100103;-75
2023/10/27 05:34:22;;;;;;;40.55;13.27;;;;;;;;;;5066964;27;99541;-74
2023/10/27 05:36:49;;;;;;;41.97;12.57;;;;;;;;;;5056719;27;100064;-74
2023/10/27 05:39:17;;;;;;;57.63;13.02;;;;;;;;;;5050916;27;101055;-75
2023/10/27 05:41:45;;;;;;;35.40;12.80;;;;;;;;;;5046348;27;99066;-75
2023/10/27 05:44:11;;;;;;;38.30;12.75;;;;;;;;;;5054365;27;100194;-75
2023/10/27 05:46:38;;;;;;;53.13;11.98;;;;;;;;;;5061145;27;99540;-75
2023/10/27 05:49:07;;;;;;;34.40;12.30;;;;;;;;;;5051193;27;99827;-75
2023/10/27 05:51:34;;;;;;;34.85;11.60;;;;;;;;;;5056004;27;99605;-75
2023/10/27 05:54:01;;;;;;;34.58;12.35;;;;;;;;;;5051927;27;101569;-75
2023/10/27 05:56:30;;;;;;;26.55;10.82;;;;;;;;;;5064560;27;100099;-75
2023/10/27 05:58:57;;;;;;;30.08;10.40;;;;;;;;;;5056846;27;100342;-75
2023/10/27 06:01:25;;;;;;;31.13;11.05;;;;;;;;;;5062234;27;100987;-75
2023/10/27 06:03:53;;;;;;;25.95;10.68;;;;;;;;;;5065785;27;100913;-74
2023/10/27 06:06:20;;;;;;;28.77;9.40;;;;;;;;;;5060567;27;100047;-75
2023/10/27 06:08:46;;;;;;;31.27;11.30;;;;;;;;;;5060664;27;100172;-77
2023/10/27 06:11:15;;;;;;;33.58;10.85;;;;;;;;;;5047589;27;100507;-74
2023/10/27 06:13:41;;;;;;;31.98;11.02;;;;;;;;;;5052416;27;100053;-74
2023/10/27 06:16:07;;;;;;;37.53;11.05;;;;;;;;;;5068037;27;100223;-74
2023/10/27 06:18:34;;;;;;;36.53;10.88;;;;;;;;;;5063847;27;99979;-75
2023/10/27 06:21:01;;;;;;;27.83;9.95;;;;;;;;;;5063499;27;101483;-75
2023/10/27 06:23:27;;;;;;;18.00;8.55;;;;;;;;;;5064860;27;101035;-76
2023/10/27 06:25:54;;;;;;;24.88;9.63;;;;;;;;;;5063720;27;99688;-74
2023/10/27 06:28:20;;;;;;;22.33;8.85;;;;;;;;;;5049542;27;98877;-75
2023/10/27 06:30:47;;;;;;;26.67;8.95;;;;;;;;;;5065245;27;100329;-75
2023/10/27 06:33:14;;;;;;;26.98;9.82;;;;;;;;;;5061735;27;99955;-76
2023/10/27 06:35:41;;;;;;;25.25;10.80;;;;;;;;;;5046111;27;99853;-75
2023/10/27 06:38:08;;;;;;;29.23;9.95;;;;;;;;;;5059578;27;100069;-74
2023/10/27 06:40:34;;;;;;;21.50;9.18;;;;;;;;;;5051064;27;99972;-76
2023/10/27 06:43:01;;;;;;;18.85;8.15;;;;;;;;;;5053501;27;99661;-77
2023/10/27 06:45:28;;;;;;;22.15;8.38;;;;;;;;;;5053194;27;100184;-74
2023/10/27 06:47:55;;;;;;;17.45;8.57;;;;;;;;;;5043937;27;101195;-75
2023/10/27 06:50:22;;;;;;;21.05;8.65;;;;;;;;;;5044034;27;101104;-74
2023/10/27 06:52:48;;;;;;;19.88;8.70;;;;;;;;;;5039521;27;100168;-73
2023/10/27 06:55:19;;;;;;;21.83;8.75;;;;;;;;;;5046611;27;99956;-74
2023/10/27 06:57:45;;;;;;;18.52;8.68;;;;;;;;;;5048094;27;100438;-74
2023/10/27 07:00:12;;;;;;;19.65;8.25;;;;;;;;;;5051432;27;100098;-74
2023/10/27 07:02:39;;;;;;;17.80;7.93;;;;;;;;;;5056262;27;99344;-74
2023/10/27 07:05:22;;;;;;;15.43;7.27;;;;;;;;;;5049138;27;100623;-75
2023/10/27 07:07:49;;;;;;;16.15;7.38;;;;;;;;;;5082307;27;100068;-75
2023/10/27 07:10:17;;;;;;;19.13;8.90;;;;;;;;;;5047798;27;101130;-75
2023/10/27 07:12:44;;;;;;;15.18;7.85;;;;;;;;;;5044937;27;100697;-75
2023/10/27 07:15:12;;;;;;;17.40;7.18;;;;;;;;;;5046849;27;100634;-75
2023/10/27 07:17:43;;;;;;;14.13;7.20;;;;;;;;;;5043390;27;99790;-74
2023/10/27 07:20:27;;;;;;;13.05;7.43;;;;;;;;;;5045250;27;100085;-75
2023/10/27 07:22:54;;;;;;;13.32;7.38;;;;;;;;;;5047768;27;100264;-71
2023/10/27 07:25:21;;;;;;;14.73;8.57;;;;;;;;;;5038580;27;100496;-73
2023/10/27 07:27:47;;;;;;;19.08;7.80;;;;;;;;;;5043971;27;99923;-75
2023/10/27 07:30:16;;;;;;;10.18;6.90;;;;;;;;;;5043679;27;99695;-75
2023/10/27 07:32:43;;;;;;;15.18;8.15;;;;;;;;;;5039215;27;100180;-75
2023/10/27 07:35:12;;;;;;;16.73;7.45;;;;;;;;;;5045076;27;102030;-74
2023/10/27 07:37:39;;;;;;;18.40;8.32;;;;;;;;;;5038649;27;102362;-74
2023/10/27 07:40:07;;;;;;;12.63;7.20;;;;;;;;;;5044810;27;100000;-75
2023/10/27 07:42:36;;;;;;;17.23;7.60;;;;;;;;;;5058909;27;100080;-75
2023/10/27 07:45:04;;;;;;;19.23;7.57;;;;;;;;;;5058015;27;100285;-75
2023/10/27 07:47:30;;;;;;;15.13;8.07;;;;;;;;;;5055551;27;99614;-75
2023/10/27 07:49:57;;;;;;;29.70;7.15;;;;;;;;;;5055749;27;101718;-75
2023/10/27 07:52:23;;;;;;;12.57;6.95;;;;;;;;;;5054693;27;99944;-75
2023/10/27 07:54:51;;;;;;;12.07;7.47;;;;;;;;;;5053688;27;100007;-75
2023/10/27 07:57:18;;;;;;;13.73;7.30;;;;;;;;;;5046405;27;100172;-76
2023/10/27 07:59:45;;;;;;;12.98;7.72;;;;;;;;;;5055365;27;99980;-76
2023/10/27 08:02:12;;;;;;;11.60;7.18;;;;;;;;;;5046142;27;99903;-75
2023/10/27 08:04:40;;;;;;;12.73;7.43;;;;;;;;;;5054304;27;99889;-75
2023/10/27 08:07:07;;;;;;;16.23;7.50;;;;;;;;;;5059927;27;99946;-74
2023/10/27 08:09:38;;;;;;;12.20;7.68;;;;;;;;;;5057859;27;100270;-75
2023/10/27 08:12:08;;;;;;;11.57;7.03;;;;;;;;;;5056499;27;100071;-74
2023/10/27 08:14:36;;;;;;;11.65;7.32;;;;;;;;;;5054850;27;100038;-74
2023/10/27 08:17:03;;;;;;;12.18;7.50;;;;;;;;;;5059534;27;100559;-75
2023/10/27 08:19:29;;;;;;;15.93;7.43;;;;;;;;;;5051835;27;98927;-74
2023/10/27 08:21:56;;;;;;;13.65;7.72;;;;;;;;;;5058922;27;100054;-74
2023/10/27 08:24:22;;;;;;;9.88;6.78;;;;;;;;;;5048618;27;100734;-74
2023/10/27 08:26:49;;;;;;;14.15;7.38;;;;;;;;;;5059063;27;101461;-76
2023/10/27 08:29:15;;;;;;;17.15;8.00;;;;;;;;;;5056982;27;100281;-74
2023/10/27 08:31:41;;;;;;;11.55;7.32;;;;;;;;;;5055093;27;99473;-74
2023/10/27 08:34:11;;;;;;;9.68;6.57;;;;;;;;;;5047194;27;100029;-73
2023/10/27 08:36:38;;;;;;;15.02;6.45;;;;;;;;;;5055470;27;100148;-76
2023/10/27 08:39:05;;;;;;;10.75;6.75;;;;;;;;;;5061581;27;99490;-74
2023/10/27 08:41:36;;;;;;;9.50;6.05;;;;;;;;;;5057088;27;99913;-75
2023/10/27 08:44:05;;;;;;;12.65;7.32;;;;;;;;;;5070640;27;100149;-74
2023/10/27 08:46:50;;;;;;;12.85;6.90;;;;;;;;;;5063783;27;100198;-74
2023/10/27 08:49:17;;;;;;;11.13;6.45;;;;;;;;;;5050704;27;100536;-76
2023/10/27 08:51:43;;;;;;;12.60;6.47;;;;;;;;;;5045115;27;99821;-73
2023/10/27 08:54:10;;;;;;;9.75;5.97;;;;;;;;;;5046336;27;101380;-74
2023/10/27 08:56:38;;;;;;;10.63;6.22;;;;;;;;;;5048350;27;100616;-73
2023/10/27 08:59:09;;;;;;;8.30;6.25;;;;;;;;;;5056621;27;99335;-73
2023/10/27 09:01:36;;;;;;;9.88;7.10;;;;;;;;;;5053420;27;101509;-73
2023/10/27 09:04:07;;;;;;;9.32;6.18;;;;;;;;;;5046479;27;100366;-73
2023/10/27 09:06:34;;;;;;;9.27;6.05;;;;;;;;;;5046833;27;100028;-73
2023/10/27 09:09:01;;;;;;;7.82;6.18;;;;;;;;;;5051221;27;99441;-73
2023/10/27 09:11:27;;;;;;;8.73;5.80;;;;;;;;;;5048663;27;100209;-73
2023/10/27 09:13:53;;;;;;;11.20;6.43;;;;;;;;;;5048298;27;100022;-73
2023/10/27 09:16:24;;;;;;;9.15;6.10;;;;;;;;;;5045338;27;100791;-73
2023/10/27 09:18:51;;;;;;;8.55;5.97;;;;;;;;;;5046858;27;99841;-73
2023/10/27 09:21:30;;;;;;;9.98;6.13;;;;;;;;;;5046093;27;99884;-73
2023/10/27 09:23:57;;;;;;;7.78;5.75;;;;;;;;;;5054080;27;100051;-73
2023/10/27 09:26:28;;;;;;;6.60;5.75;;;;;;;;;;5047808;27;99893;-74
2023/10/27 09:29:01;;;;;;;9.18;6.57;;;;;;;;;;5049568;27;100678;-73
2023/10/27 09:31:34;;;;;;;9.65;5.65;;;;;;;;;;5054449;27;99900;-74
2023/10/27 09:34:15;;;;;;;7.80;5.53;;;;;;;;;;5059824;27;100165;-74
2023/10/27 09:36:43;;;;;;;6.50;5.20;;;;;;;;;;5053138;27;99327;-75
2023/10/27 09:39:09;;;;;;;8.63;6.78;;;;;;;;;;5052341;27;99211;-75
2023/10/27 09:41:39;;;;;;;6.80;6.00;;;;;;;;;;5054677;27;99934;-74
2023/10/27 09:44:07;;;;;;;7.75;5.13;;;;;;;;;;5048876;27;100263;-73
2023/10/27 09:46:36;;;;;;;7.75;6.35;;;;;;;;;;5053643;27;99133;-74
2023/10/27 09:49:05;;;;;;;8.23;5.88;;;;;;;;;;5053375;27;99932;-73
2023/10/27 09:51:41;;;;;;;6.53;5.75;;;;;;;;;;5048333;27;100405;-76
2023/10/27 09:54:08;;;;;;;6.70;5.70;;;;;;;;;;5052386;27;99838;-73
2023/10/27 09:56:35;;;;;;;6.55;5.95;;;;;;;;;;5054323;27;99094;-74
2023/10/27 09:59:02;;;;;;;6.82;5.28;;;;;;;;;;5047221;27;99580;-75
2023/10/27 10:01:29;;;;;;;5.40;4.90;;;;;;;;;;5044810;27;99760;-74
2023/10/27 10:03:56;;;;;;;6.82;5.40;;;;;;;;;;5051022;27;99444;-74
2023/10/27 10:06:26;;;;;;;7.13;5.30;;;;;;;;;;5040925;27;101191;-73
2023/10/27 10:09:09;;;;;;;8.05;5.25;;;;;;;;;;5049392;27;100313;-75
2023/10/27 10:11:58;;;;;;;7.30;5.28;;;;;;;;;;5049931;27;101137;-74
2023/10/27 10:14:45;;;;;;;7.47;5.22;;;;;;;;;;5058909;27;99014;-75
2023/10/27 10:17:19;;;;;;;4.68;4.10;;;;;;;;;;5043934;27;100126;-75
2023/10/27 10:19:49;;;;;;;6.07;4.82;;;;;;;;;;5046694;27;99838;-75
2023/10/27 10:22:35;;;;;;;5.05;4.60;;;;;;;;;;5042841;27;101463;-75
2023/10/27 10:25:21;;;;;;;5.10;4.70;;;;;;;;;;5041994;27;99888;-76
2023/10/27 10:28:06;;;;;;;7.00;4.55;;;;;;;;;;5046232;27;99255;-75
2023/10/27 10:30:36;;;;;;;6.38;3.88;;;;;;;;;;5043646;27;101438;-75
2023/10/27 10:33:24;;;;;;;5.45;4.30;;;;;;;;;;5047214;27;101221;-77
2023/10/27 10:36:18;;;;;;;5.45;4.53;;;;;;;;;;5049531;27;99958;-76
2023/10/27 10:38:55;;;;;;;4.03;3.70;;;;;;;;;;5037809;27;100689;-76
2023/10/27 10:41:44;;;;;;;5.57;4.47;;;;;;;;;;5054647;27;100645;-77
2023/10/27 10:44:12;;;;;;;4.65;3.72;;;;;;;;;;5059029;27;99238;-76
2023/10/27 10:46:44;;;;;;;4.63;4.22;;;;;;;;;;5055663;27;99844;-76
2023/10/27 10:49:21;;;;;;;4.45;3.75;;;;;;;;;;5052643;27;99739;-76
2023/10/27 10:51:54;;;;;;;5.82;3.92;;;;;;;;;;5056930;27;99291;-76
2023/10/27 10:54:25;;;;;;;3.63;3.42;;;;;;;;;;5056619;27;99506;-77
2023/10/27 10:56:59;;;;;;;4.15;3.85;;;;;;;;;;5053545;27;100447;-77
2023/10/27 10:59:25;;;;;;;5.03;4.35;;;;;;;;;;5044479;27;99312;-77
2023/10/27 11:01:56;;;;;;;4.00;3.60;;;;;;;;;;5055570;27;100444;-77
2023/10/27 11:04:34;;;;;;;5.10;4.10;;;;;;;;;;5059225;27;99011;-76
2023/10/27 11:07:06;;;;;;;3.58;3.33;;;;;;;;;;5045683;27;99523;-77
2023/10/27 11:09:33;;;;;;;6.72;3.70;;;;;;;;;;5047028;27;100194;-76
2023/10/27 11:12:00;;;;;;;3.30;3.10;;;;;;;;;;5056868;27;100091;-77
2023/10/27 11:14:38;;;;;;;4.07;3.67;;;;;;;;;;5058416;27;100239;-77
2023/10/27 11:17:05;;;;;;;3.83;3.53;;;;;;;;;;5052629;27;102082;-76
2023/10/27 11:19:31;;;;;;;4.05;3.80;;;;;;;;;;5044894;27;98646;-79
2023/10/27 11:21:58;;;;;;;3.65;3.45;;;;;;;;;;5053286;27;100571;-80
2023/10/27 11:24:24;;;;;;;4.60;4.30;;;;;;;;;;5048516;27;100646;-77
2023/10/27 11:26:53;;;;;;;7.97;3.47;;;;;;;;;;5059654;27;100689;-78
2023/10/27 11:29:19;;;;;;;3.85;3.65;;;;;;;;;;5060506;27;99147;-82
2023/10/27 11:31:47;;;;;;;5.30;4.78;;;;;;;;;;5044674;27;99976;-81
2023/10/27 11:34:20;;;;;;;3.58;3.35;;;;;;;;;;5050217;27;99470;-79
2023/10/27 11:36:47;;;;;;;;;;;;;;;;;;5051218;27;99782;-78
2023/10/27 11:39:13;;;;;;;;;;;;;;;;;;5054677;27;104724;-77
2023/10/27 11:41:39;;;;;;;;;;;;;;;;;;5060336;27;125199;-77
2023/10/27 11:44:07;;;;;;;;;;;;;;;;;;5049263;27;117522;-78
2023/10/27 11:46:34;;;;;;;;;;;;;;;;;;5062700;27;129192;-77
2023/10/27 11:49:01;;;;;;;;;;;;;;;;;;5053744;27;129218;-77
2023/10/27 11:51:29;;;;;;;;;;;;;;;;;;5060495;27;125974;-76
2023/10/27 11:53:57;;;;;;;;;;;;;;;;;;5064832;27;112136;-76
2023/10/27 11:56:23;;;;;;;;;;;;;;;;;;5063237;27;127271;-77
2023/10/27 11:58:50;;;;;;;;;;;;;;;;;;5057406;27;129190;-78
2023/10/27 12:01:19;;;;;;;;;;;;;;;;;;5057815;27;129702;-77
2023/10/27 12:03:45;;;;;;;;;;;;;;;;;;5062861;27;115965;-77
2023/10/27 12:06:16;;;;;;;;;;;;;;;;;;5055710;27;123283;-78
2023/10/27 12:08:44;;;;;;;;;;;;;;;;;;5055832;27;122820;-78
2023/10/27 12:11:14;;;;;;;;;;;;;;;;;;5057807;27;98689;-77
2023/10/27 12:13:42;;;;;;;;;;;;;;;;;;5055381;27;100832;-76
2023/10/27 12:16:10;;;;;;;;;;;;;;;;;;5053572;27;99811;-77
2023/10/27 12:18:39;;;;;;;;;;;;;;;;;;5059240;27;99334;-75
2023/10/27 12:21:06;;;;;;;;;;;;;;;;;;5053614;27;99507;-76
2023/10/27 12:23:33;;;;;;;;;;;;;;;;;;5062094;27;126331;-74
2023/10/27 12:26:03;;;;;;;;;;;;;;;;;;5061245;27;99460;-76
2023/10/27 12:28:30;;;;;;;;;;;;;;;;;;5058066;27;129595;-76
2023/10/27 12:30:58;;;;;;;;;;;;;;;;;;5060681;27;125430;-76
2023/10/27 12:33:25;;;;;;;;;;;;;;;;;;5054759;27;101186;-76
2023/10/27 12:35:55;;;;;;;;;;;;;;;;;;5056606;27;119087;-77
2023/10/27 12:38:21;;;;;;;;;;;;;;;;;;5065030;27;115865;-77
2023/10/27 12:40:47;;;;;;;;;;;;;;;;;;5055809;27;117236;-77
2023/10/27 12:43:17;;;;;;;;;;;;;;;;;;5054961;27;100011;-77
2023/10/27 12:45:43;;;;;;;;;;;;;;;;;;5059622;27;129988;-76
2023/10/27 12:48:10;;;;;;;;;;;;;;;;;;5050607;27;130366;-76
2023/10/27 12:50:39;;;;;;;;;;;;;;;;;;5053914;27;99344;-77
2023/10/27 12:53:08;;;;;;;;;;;;;;;;;;5058053;27;129415;-76
2023/10/27 12:55:36;;;;;;;;;;;;;;;;;;5050042;27;129696;-78
2023/10/27 12:58:08;;;;;;;;;;;;;;;;;;5056355;27;106376;-79
2023/10/27 13:00:43;;;;;;;;;;;;;;;;;;5072827;27;99398;-79
2023/10/27 13:03:16;;;;;;;;;;;;;;;;;;5054299;27;123154;-77
2023/10/27 13:05:43;;;;;;;;;;;;;;;;;;5053240;27;130057;-78
2023/10/27 13:08:10;;;;;;;;;;;;;;;;;;5060665;27;129620;-78
2023/10/27 13:10:39;;;;;;;;;;;;;;;;;;5059510;27;130256;-78
2023/10/27 13:13:09;;;;;;;;;;;;;;;;;;5054436;27;129931;-77
2023/10/27 13:15:39;;;;;;;;;;;;;;;;;;5053241;27;101307;-79
2023/10/27 13:18:08;;;;;;;;;;;;;;;;;;5057448;27;99585;-79
2023/10/27 13:20:35;;;;;;;;;;;;;;;;;;5067136;27;129205;-79
2023/10/27 13:23:07;;;;;;;;;;;;;;;;;;5057527;27;128436;-79
2023/10/27 13:25:37;;;;;;;;;;;;;;;;;;5058237;27;99173;-78
2023/10/27 13:28:04;;;;;;;;;;;;;;;;;;5062724;27;120795;-78
2023/10/27 13:30:34;;;;;;;;;;;;;;;;;;5047971;27;129909;-77
2023/10/27 13:33:02;;;;;;;;;;;;;;;;;;5055551;27;114023;-75
2023/10/27 13:35:29;;;;;;;;;;;;;;;;;;5049037;27;125214;-77
2023/10/27 13:38:06;;;;;;;;;;;;;;;;;;5055971;27;129404;-79
2023/10/27 13:40:39;;;;;;;;;;;;;;;;;;5045512;27;125695;-79
2023/10/27 13:43:11;;;;;;;;;;;;;;;;;;5057285;27;120832;-79
2023/10/27 13:45:37;;;;;;;;;;;;;;;;;;5058094;27;129228;-80
2023/10/27 13:48:03;;;;;;;;;;;;;;;;;;5062163;27;124658;-79
2023/10/27 13:50:30;;;;;;;;;;;;;;;;;;5054428;27;131756;-79
2023/10/27 13:52:56;;;;;;;;;;;;;;;;;;5061379;27;129108;-79
2023/10/27 13:55:22;;;;;;;;;;;;;;;;;;5048921;27;130188;-78
2023/10/27 13:57:49;;;;;;;;;;;;;;;;;;5052901;27;130154;-80
2023/10/27 14:00:16;;;;;;;;;;;;;;;;;;5056497;27;125094;-83
2023/10/27 14:02:43;;;;;;;;;;;;;;;;;;5058811;27;129434;-81
2023/10/27 14:05:12;;;;;;;;;;;;;;;;;;5055752;27;129072;-80
2023/10/27 14:07:39;;;;;;;;;;;;;;;;;;5049679;27;130881;-84
2023/10/27 14:10:06;;;;;;;;;;;;;;;;;;5059148;27;129797;-83
2023/10/27 14:12:32;;;;;;;;;;;;;;;;;;5047556;27;128188;-81
2023/10/27 14:14:59;;;;;;;;;;;;;;;;;;5057154;27;129779;-79
2023/10/27 14:17:25;;;;;;;;;;;;;;;;;;5046448;27;129408;-78
2023/10/27 14:19:52;;;;;;;;;;;;;;;;;;5050636;27;100542;-79
2023/10/27 14:22:19;;;;;;;;;;;;;;;;;;5060015;27;129751;-80
2023/10/27 14:24:45;;;;;;;;;;;;;;;;;;5045970;27;128035;-82
2023/10/27 14:27:14;;;;;;;;;;;;;;;;;;5052155;27;129861;-81
2023/10/27 14:29:41;;;;;;;;;;;;;;;;;;5054163;27;128934;-81
2023/10/27 14:32:08;;;;;;;;;;;;;;;;;;5053078;27;129176;-81
2023/10/27 14:34:34;;;;;;;;;;;;;;;;;;5051029;27;129079;-80
2023/10/27 14:37:01;;;;;;;;;;;;;;;;;;5049376;27;129758;-78
2023/10/27 14:39:27;;;;;;;;;;;;;;;;;;5059459;27;129140;-78
2023/10/27 14:41:55;;;;;;;;;;;;;;;;;;5047895;27;100906;-77
2023/10/27 14:44:21;;;;;;;;;;;;;;;;;;5054716;27;100244;-77
2023/10/27 14:46:47;;;;;;;;;;;;;;;;;;5053034;27;130738;-76
2023/10/27 14:49:14;;;;;;;;;;;;;;;;;;5046807;27;129305;-76
2023/10/27 14:51:40;;;;;;;;;;;;;;;;;;5055427;27;118743;-76